sensor_id;sensor_type;location;lat;lon;timestamp;P1;durP1;ratioP1;P2;durP2;ratioP2
37407;SDS011;24866;50.248;8.252;2022-10-16T00:02:29;4.00;;;1.30;;
37407;SDS011;24866;50.248;8.252;2022-10-16T00:05:00;5.10;;;1.30;;
37407;SDS011;24866;50.248;8.252;2022-10-16T00:07:30;2.65;;;1.27;;
37407;SDS011;24866;50.248;8.252;2022-10-16T00:10:00;4.95;;;1.20;;
37407;SDS011;24866;50.248;8.252;2022-10-16T00:12:30;3.22;;;1.17;;
37407;SDS011;24866;50.248;8.252;2022-10-16T00:15:00;4.95;;;0.90;;
37407;SDS011;24866;50.248;8.252;2022-10-16T00:17:29;1.67;;;1.23;;
37407;SDS011;24866;50.248;8.252;2022-10-16T00:20:01;3.47;;;1.20;;
37407;SDS011;24866;50.248;8.252;2022-10-16T00:22:31;1.80;;;1.17;;
37407;SDS011;24866;50.248;8.252;2022-10-16T00:25:02;1.65;;;1.30;;
37407;SDS011;24866;50.248;8.252;2022-10-16T00:27:32;2.95;;;1.20;;
37407;SDS011;24866;50.248;8.252;2022-10-16T00:30:03;2.25;;;1.20;;
37407;SDS011;24866;50.248;8.252;2022-10-16T00:32:33;4.40;;;1.40;;
37407;SDS011;24866;50.248;8.252;2022-10-16T00:35:05;1.90;;;1.27;;
37407;SDS011;24866;50.248;8.252;2022-10-16T00:37:35;4.23;;;1.70;;
37407;SDS011;24866;50.248;8.252;2022-10-16T00:40:06;2.20;;;1.60;;
37407;SDS011;24866;50.248;8.252;2022-10-16T00:42:36;3.97;;;1.60;;
37407;SDS011;24866;50.248;8.252;2022-10-16T00:45:08;5.03;;;2.03;;
37407;SDS011;24866;50.248;8.252;2022-10-16T00:47:39;3.90;;;1.52;;
37407;SDS011;24866;50.248;8.252;2022-10-16T00:50:16;3.47;;;1.67;;
37407;SDS011;24866;50.248;8.252;2022-10-16T00:52:52;1.75;;;1.17;;
37407;SDS011;24866;50.248;8.252;2022-10-16T00:55:22;4.88;;;1.38;;
37407;SDS011;24866;50.248;8.252;2022-10-16T00:57:53;2.38;;;1.27;;
37407;SDS011;24866;50.248;8.252;2022-10-16T01:00:25;6.10;;;1.20;;
37407;SDS011;24866;50.248;8.252;2022-10-16T01:02:56;4.37;;;1.30;;
37407;SDS011;24866;50.248;8.252;2022-10-16T01:05:30;2.60;;;1.30;;
37407;SDS011;24866;50.248;8.252;2022-10-16T01:08:07;3.10;;;1.17;;
37407;SDS011;24866;50.248;8.252;2022-10-16T01:10:43;2.85;;;1.30;;
37407;SDS011;24866;50.248;8.252;2022-10-16T01:13:23;2.78;;;1.25;;
37407;SDS011;24866;50.248;8.252;2022-10-16T01:15:59;4.15;;;1.50;;
37407;SDS011;24866;50.248;8.252;2022-10-16T01:18:35;5.72;;;1.33;;
37407;SDS011;24866;50.248;8.252;2022-10-16T01:21:12;4.03;;;1.50;;
37407;SDS011;24866;50.248;8.252;2022-10-16T01:23:48;4.00;;;1.58;;
37407;SDS011;24866;50.248;8.252;2022-10-16T01:26:31;4.45;;;1.40;;
37407;SDS011;24866;50.248;8.252;2022-10-16T01:29:14;3.25;;;1.60;;
37407;SDS011;24866;50.248;8.252;2022-10-16T01:31:48;3.08;;;1.60;;
37407;SDS011;24866;50.248;8.252;2022-10-16T01:34:25;2.50;;;1.40;;
37407;SDS011;24866;50.248;8.252;2022-10-16T01:37:02;4.75;;;1.15;;
37407;SDS011;24866;50.248;8.252;2022-10-16T01:39:36;1.98;;;1.15;;
37407;SDS011;24866;50.248;8.252;2022-10-16T01:42:11;8.27;;;1.45;;
37407;SDS011;24866;50.248;8.252;2022-10-16T01:44:49;4.50;;;1.17;;
37407;SDS011;24866;50.248;8.252;2022-10-16T01:47:22;3.10;;;1.02;;
37407;SDS011;24866;50.248;8.252;2022-10-16T01:49:53;2.30;;;1.02;;
37407;SDS011;24866;50.248;8.252;2022-10-16T01:52:27;2.72;;;1.30;;
37407;SDS011;24866;50.248;8.252;2022-10-16T01:54:58;1.90;;;1.42;;
37407;SDS011;24866;50.248;8.252;2022-10-16T02:00:05;3.53;;;1.00;;
37407;SDS011;24866;50.248;8.252;2022-10-16T02:02:36;4.00;;;1.35;;
37407;SDS011;24866;50.248;8.252;2022-10-16T02:05:09;4.07;;;1.38;;
37407;SDS011;24866;50.248;8.252;2022-10-16T02:07:44;1.67;;;1.20;;
37407;SDS011;24866;50.248;8.252;2022-10-16T02:10:14;2.75;;;1.20;;
37407;SDS011;24866;50.248;8.252;2022-10-16T02:12:45;3.03;;;1.20;;
37407;SDS011;24866;50.248;8.252;2022-10-16T02:15:20;5.70;;;1.95;;
37407;SDS011;24866;50.248;8.252;2022-10-16T02:17:50;4.03;;;1.23;;
37407;SDS011;24866;50.248;8.252;2022-10-16T02:20:21;2.20;;;1.45;;
37407;SDS011;24866;50.248;8.252;2022-10-16T02:22:55;2.92;;;1.23;;
37407;SDS011;24866;50.248;8.252;2022-10-16T02:25:29;2.30;;;1.40;;
37407;SDS011;24866;50.248;8.252;2022-10-16T02:28:02;2.10;;;1.40;;
37407;SDS011;24866;50.248;8.252;2022-10-16T02:30:38;1.88;;;1.20;;
37407;SDS011;24866;50.248;8.252;2022-10-16T02:33:12;3.08;;;1.30;;
37407;SDS011;24866;50.248;8.252;2022-10-16T02:35:44;2.55;;;0.90;;
37407;SDS011;24866;50.248;8.252;2022-10-16T02:38:15;4.03;;;0.88;;
37407;SDS011;24866;50.248;8.252;2022-10-16T02:40:46;1.38;;;0.82;;
37407;SDS011;24866;50.248;8.252;2022-10-16T02:43:16;2.80;;;0.93;;
37407;SDS011;24866;50.248;8.252;2022-10-16T02:45:48;3.33;;;1.00;;
37407;SDS011;24866;50.248;8.252;2022-10-16T02:48:17;6.20;;;0.80;;
37407;SDS011;24866;50.248;8.252;2022-10-16T02:50:47;3.05;;;1.17;;
37407;SDS011;24866;50.248;8.252;2022-10-16T02:53:17;3.53;;;1.30;;
37407;SDS011;24866;50.248;8.252;2022-10-16T02:55:47;2.03;;;0.82;;
37407;SDS011;24866;50.248;8.252;2022-10-16T02:58:17;3.47;;;1.42;;
37407;SDS011;24866;50.248;8.252;2022-10-16T03:00:48;3.42;;;0.77;;
37407;SDS011;24866;50.248;8.252;2022-10-16T03:03:18;1.83;;;0.60;;
37407;SDS011;24866;50.248;8.252;2022-10-16T03:05:48;0.30;;;0.20;;
37407;SDS011;24866;50.248;8.252;2022-10-16T03:08:18;0.75;;;0.40;;
37407;SDS011;24866;50.248;8.252;2022-10-16T03:10:53;0.85;;;0.40;;
37407;SDS011;24866;50.248;8.252;2022-10-16T03:13:23;1.33;;;0.20;;
37407;SDS011;24866;50.248;8.252;2022-10-16T03:15:54;0.82;;;0.30;;
37407;SDS011;24866;50.248;8.252;2022-10-16T03:18:24;2.65;;;0.68;;
37407;SDS011;24866;50.248;8.252;2022-10-16T03:20:53;0.73;;;0.30;;
37407;SDS011;24866;50.248;8.252;2022-10-16T03:23:23;7.03;;;0.43;;
37407;SDS011;24866;50.248;8.252;2022-10-16T03:25:53;2.00;;;0.30;;
37407;SDS011;24866;50.248;8.252;2022-10-16T03:28:23;5.65;;;0.50;;
37407;SDS011;24866;50.248;8.252;2022-10-16T03:30:54;3.55;;;0.65;;
37407;SDS011;24866;50.248;8.252;2022-10-16T03:33:24;0.95;;;0.47;;
37407;SDS011;24866;50.248;8.252;2022-10-16T03:35:54;1.58;;;0.43;;
37407;SDS011;24866;50.248;8.252;2022-10-16T03:38:24;2.58;;;0.50;;
37407;SDS011;24866;50.248;8.252;2022-10-16T03:40:54;3.63;;;0.95;;
37407;SDS011;24866;50.248;8.252;2022-10-16T03:43:24;2.40;;;0.60;;
37407;SDS011;24866;50.248;8.252;2022-10-16T03:45:55;3.15;;;0.80;;
37407;SDS011;24866;50.248;8.252;2022-10-16T03:48:25;3.28;;;0.70;;
37407;SDS011;24866;50.248;8.252;2022-10-16T03:50:55;1.88;;;0.77;;
37407;SDS011;24866;50.248;8.252;2022-10-16T03:53:25;1.02;;;0.50;;
37407;SDS011;24866;50.248;8.252;2022-10-16T03:55:54;2.08;;;0.70;;
37407;SDS011;24866;50.248;8.252;2022-10-16T03:58:24;5.97;;;1.00;;
37407;SDS011;24866;50.248;8.252;2022-10-16T04:00:55;1.17;;;0.65;;
37407;SDS011;24866;50.248;8.252;2022-10-16T04:03:25;2.42;;;0.85;;
37407;SDS011;24866;50.248;8.252;2022-10-16T04:05:55;3.35;;;1.30;;
37407;SDS011;24866;50.248;8.252;2022-10-16T04:08:25;2.60;;;1.00;;
37407;SDS011;24866;50.248;8.252;2022-10-16T04:10:55;3.78;;;0.95;;
37407;SDS011;24866;50.248;8.252;2022-10-16T04:13:25;2.30;;;1.05;;
37407;SDS011;24866;50.248;8.252;2022-10-16T04:15:56;4.75;;;1.50;;
37407;SDS011;24866;50.248;8.252;2022-10-16T04:18:26;3.75;;;1.08;;
37407;SDS011;24866;50.248;8.252;2022-10-16T04:20:57;2.08;;;0.98;;
37407;SDS011;24866;50.248;8.252;2022-10-16T04:23:31;1.85;;;1.38;;
37407;SDS011;24866;50.248;8.252;2022-10-16T04:26:02;3.95;;;1.30;;
37407;SDS011;24866;50.248;8.252;2022-10-16T04:28:32;3.13;;;1.35;;
37407;SDS011;24866;50.248;8.252;2022-10-16T04:31:04;5.68;;;1.48;;
37407;SDS011;24866;50.248;8.252;2022-10-16T04:33:35;3.38;;;1.58;;
37407;SDS011;24866;50.248;8.252;2022-10-16T04:36:05;4.13;;;1.40;;
37407;SDS011;24866;50.248;8.252;2022-10-16T04:38:35;2.90;;;1.00;;
37407;SDS011;24866;50.248;8.252;2022-10-16T04:41:05;3.53;;;0.90;;
37407;SDS011;24866;50.248;8.252;2022-10-16T04:43:36;3.40;;;1.67;;
37407;SDS011;24866;50.248;8.252;2022-10-16T04:46:07;6.10;;;1.35;;
37407;SDS011;24866;50.248;8.252;2022-10-16T04:48:38;3.72;;;1.23;;
37407;SDS011;24866;50.248;8.252;2022-10-16T04:51:08;3.05;;;1.17;;
37407;SDS011;24866;50.248;8.252;2022-10-16T04:53:37;2.72;;;1.13;;
37407;SDS011;24866;50.248;8.252;2022-10-16T04:56:07;3.10;;;0.93;;
37407;SDS011;24866;50.248;8.252;2022-10-16T04:58:37;3.65;;;1.20;;
37407;SDS011;24866;50.248;8.252;2022-10-16T05:01:08;2.45;;;1.05;;
37407;SDS011;24866;50.248;8.252;2022-10-16T05:03:38;2.75;;;1.65;;
37407;SDS011;24866;50.248;8.252;2022-10-16T05:06:08;5.72;;;1.60;;
37407;SDS011;24866;50.248;8.252;2022-10-16T05:08:38;2.30;;;1.40;;
37407;SDS011;24866;50.248;8.252;2022-10-16T05:11:08;6.80;;;1.55;;
37407;SDS011;24866;50.248;8.252;2022-10-16T05:13:38;4.50;;;1.27;;
37407;SDS011;24866;50.248;8.252;2022-10-16T05:16:09;4.07;;;1.73;;
37407;SDS011;24866;50.248;8.252;2022-10-16T05:18:39;3.88;;;2.13;;
37407;SDS011;24866;50.248;8.252;2022-10-16T05:21:09;5.20;;;1.42;;
37407;SDS011;24866;50.248;8.252;2022-10-16T05:23:38;3.35;;;1.08;;
37407;SDS011;24866;50.248;8.252;2022-10-16T05:26:08;4.20;;;1.70;;
37407;SDS011;24866;50.248;8.252;2022-10-16T05:28:40;2.97;;;1.23;;
37407;SDS011;24866;50.248;8.252;2022-10-16T05:31:12;4.87;;;1.87;;
37407;SDS011;24866;50.248;8.252;2022-10-16T05:33:42;1.85;;;1.20;;
37407;SDS011;24866;50.248;8.252;2022-10-16T05:36:12;2.03;;;1.13;;
37407;SDS011;24866;50.248;8.252;2022-10-16T05:38:42;2.17;;;1.33;;
37407;SDS011;24866;50.248;8.252;2022-10-16T05:41:11;4.40;;;1.30;;
37407;SDS011;24866;50.248;8.252;2022-10-16T05:43:41;2.85;;;1.45;;
37407;SDS011;24866;50.248;8.252;2022-10-16T05:46:13;3.33;;;1.80;;
37407;SDS011;24866;50.248;8.252;2022-10-16T05:48:43;1.45;;;1.23;;
37407;SDS011;24866;50.248;8.252;2022-10-16T05:51:13;3.85;;;1.77;;
37407;SDS011;24866;50.248;8.252;2022-10-16T05:53:44;6.97;;;1.80;;
37407;SDS011;24866;50.248;8.252;2022-10-16T05:56:13;5.10;;;1.63;;
37407;SDS011;24866;50.248;8.252;2022-10-16T05:58:43;3.60;;;2.20;;
37407;SDS011;24866;50.248;8.252;2022-10-16T06:01:15;4.18;;;1.95;;
37407;SDS011;24866;50.248;8.252;2022-10-16T06:03:46;2.13;;;1.65;;
37407;SDS011;24866;50.248;8.252;2022-10-16T06:06:16;2.65;;;2.00;;
37407;SDS011;24866;50.248;8.252;2022-10-16T06:08:48;2.72;;;1.42;;
37407;SDS011;24866;50.248;8.252;2022-10-16T06:11:19;2.45;;;1.67;;
37407;SDS011;24866;50.248;8.252;2022-10-16T06:13:50;4.33;;;2.17;;
37407;SDS011;24866;50.248;8.252;2022-10-16T06:16:22;8.65;;;4.55;;
37407;SDS011;24866;50.248;8.252;2022-10-16T06:18:53;8.95;;;5.75;;
37407;SDS011;24866;50.248;8.252;2022-10-16T06:21:24;6.30;;;4.47;;
37407;SDS011;24866;50.248;8.252;2022-10-16T06:23:56;7.35;;;4.93;;
37407;SDS011;24866;50.248;8.252;2022-10-16T06:26:27;4.28;;;2.60;;
37407;SDS011;24866;50.248;8.252;2022-10-16T06:28:58;3.00;;;1.88;;
37407;SDS011;24866;50.248;8.252;2022-10-16T06:31:30;4.40;;;2.67;;
37407;SDS011;24866;50.248;8.252;2022-10-16T06:34:01;4.13;;;1.90;;
37407;SDS011;24866;50.248;8.252;2022-10-16T06:36:33;2.33;;;1.45;;
37407;SDS011;24866;50.248;8.252;2022-10-16T06:39:03;6.03;;;2.35;;
37407;SDS011;24866;50.248;8.252;2022-10-16T06:41:35;6.85;;;2.70;;
37407;SDS011;24866;50.248;8.252;2022-10-16T06:44:06;3.55;;;2.58;;
37407;SDS011;24866;50.248;8.252;2022-10-16T06:46:37;4.80;;;2.30;;
37407;SDS011;24866;50.248;8.252;2022-10-16T06:49:07;4.30;;;2.20;;
37407;SDS011;24866;50.248;8.252;2022-10-16T06:51:37;3.83;;;1.92;;
37407;SDS011;24866;50.248;8.252;2022-10-16T06:54:09;3.25;;;1.80;;
37407;SDS011;24866;50.248;8.252;2022-10-16T06:56:39;3.22;;;2.10;;
37407;SDS011;24866;50.248;8.252;2022-10-16T06:59:09;3.47;;;2.20;;
37407;SDS011;24866;50.248;8.252;2022-10-16T07:01:40;3.08;;;1.73;;
37407;SDS011;24866;50.248;8.252;2022-10-16T07:04:10;2.78;;;1.88;;
37407;SDS011;24866;50.248;8.252;2022-10-16T07:06:40;4.30;;;1.90;;
37407;SDS011;24866;50.248;8.252;2022-10-16T07:09:09;2.55;;;1.75;;
37407;SDS011;24866;50.248;8.252;2022-10-16T07:11:40;3.63;;;2.13;;
37407;SDS011;24866;50.248;8.252;2022-10-16T07:14:12;2.55;;;1.90;;
37407;SDS011;24866;50.248;8.252;2022-10-16T07:16:47;2.33;;;2.00;;
37407;SDS011;24866;50.248;8.252;2022-10-16T07:19:17;5.10;;;2.33;;
37407;SDS011;24866;50.248;8.252;2022-10-16T07:21:47;3.88;;;2.85;;
37407;SDS011;24866;50.248;8.252;2022-10-16T07:24:17;3.38;;;2.28;;
37407;SDS011;24866;50.248;8.252;2022-10-16T07:26:47;6.80;;;2.47;;
37407;SDS011;24866;50.248;8.252;2022-10-16T07:29:17;6.05;;;2.72;;
37407;SDS011;24866;50.248;8.252;2022-10-16T07:31:50;7.67;;;2.60;;
37407;SDS011;24866;50.248;8.252;2022-10-16T07:34:20;3.50;;;2.38;;
37407;SDS011;24866;50.248;8.252;2022-10-16T07:36:50;5.15;;;2.42;;
37407;SDS011;24866;50.248;8.252;2022-10-16T07:39:20;3.15;;;2.28;;
37407;SDS011;24866;50.248;8.252;2022-10-16T07:41:50;5.03;;;3.45;;
37407;SDS011;24866;50.248;8.252;2022-10-16T07:44:20;4.07;;;2.45;;
37407;SDS011;24866;50.248;8.252;2022-10-16T07:46:51;3.40;;;2.45;;
37407;SDS011;24866;50.248;8.252;2022-10-16T07:49:21;5.75;;;4.00;;
37407;SDS011;24866;50.248;8.252;2022-10-16T07:51:51;5.45;;;3.65;;
37407;SDS011;24866;50.248;8.252;2022-10-16T07:54:21;5.82;;;4.22;;
37407;SDS011;24866;50.248;8.252;2022-10-16T07:56:51;6.03;;;4.50;;
37407;SDS011;24866;50.248;8.252;2022-10-16T07:59:21;12.00;;;7.65;;
37407;SDS011;24866;50.248;8.252;2022-10-16T08:01:52;12.40;;;8.90;;
37407;SDS011;24866;50.248;8.252;2022-10-16T08:04:22;9.43;;;7.05;;
37407;SDS011;24866;50.248;8.252;2022-10-16T08:06:52;11.70;;;8.48;;
37407;SDS011;24866;50.248;8.252;2022-10-16T08:09:22;6.05;;;4.47;;
37407;SDS011;24866;50.248;8.252;2022-10-16T08:11:52;5.15;;;3.88;;
37407;SDS011;24866;50.248;8.252;2022-10-16T08:14:22;6.45;;;3.67;;
37407;SDS011;24866;50.248;8.252;2022-10-16T08:16:53;5.03;;;4.20;;
37407;SDS011;24866;50.248;8.252;2022-10-16T08:19:23;5.97;;;3.55;;
37407;SDS011;24866;50.248;8.252;2022-10-16T08:21:53;6.75;;;4.40;;
37407;SDS011;24866;50.248;8.252;2022-10-16T08:24:22;7.18;;;3.92;;
37407;SDS011;24866;50.248;8.252;2022-10-16T08:26:53;6.07;;;4.60;;
37407;SDS011;24866;50.248;8.252;2022-10-16T08:29:23;8.05;;;4.85;;
37407;SDS011;24866;50.248;8.252;2022-10-16T08:31:54;5.85;;;4.70;;
37407;SDS011;24866;50.248;8.252;2022-10-16T08:34:24;5.75;;;4.50;;
37407;SDS011;24866;50.248;8.252;2022-10-16T08:36:54;7.00;;;4.70;;
37407;SDS011;24866;50.248;8.252;2022-10-16T08:39:24;7.22;;;5.10;;
37407;SDS011;24866;50.248;8.252;2022-10-16T08:42:06;4.53;;;3.88;;
37407;SDS011;24866;50.248;8.252;2022-10-16T08:47:53;6.03;;;3.60;;
37407;SDS011;24866;50.248;8.252;2022-10-16T08:50:35;4.95;;;3.50;;
37407;SDS011;24866;50.248;8.252;2022-10-16T08:53:09;4.80;;;3.42;;
37407;SDS011;24866;50.248;8.252;2022-10-16T08:55:45;5.38;;;3.10;;
37407;SDS011;24866;50.248;8.252;2022-10-16T08:58:19;4.55;;;3.10;;
37407;SDS011;24866;50.248;8.252;2022-10-16T09:00:51;4.60;;;3.00;;
37407;SDS011;24866;50.248;8.252;2022-10-16T09:03:28;3.63;;;2.42;;
37407;SDS011;24866;50.248;8.252;2022-10-16T09:06:15;3.17;;;2.40;;
37407;SDS011;24866;50.248;8.252;2022-10-16T09:08:59;5.78;;;2.30;;
37407;SDS011;24866;50.248;8.252;2022-10-16T09:11:43;4.40;;;2.60;;
37407;SDS011;24866;50.248;8.252;2022-10-16T09:14:22;6.25;;;2.53;;
37407;SDS011;24866;50.248;8.252;2022-10-16T09:17:11;3.88;;;2.42;;
37407;SDS011;24866;50.248;8.252;2022-10-16T09:19:56;5.03;;;2.00;;
37407;SDS011;24866;50.248;8.252;2022-10-16T09:22:33;3.38;;;1.70;;
37407;SDS011;24866;50.248;8.252;2022-10-16T09:25:09;2.33;;;0.75;;
37407;SDS011;24866;50.248;8.252;2022-10-16T09:27:41;4.35;;;0.88;;
37407;SDS011;24866;50.248;8.252;2022-10-16T09:30:14;1.27;;;0.75;;
37407;SDS011;24866;50.248;8.252;2022-10-16T09:32:47;1.55;;;0.80;;
37407;SDS011;24866;50.248;8.252;2022-10-16T09:35:21;2.35;;;1.10;;
37407;SDS011;24866;50.248;8.252;2022-10-16T09:37:56;2.92;;;1.20;;
37407;SDS011;24866;50.248;8.252;2022-10-16T09:40:26;0.70;;;0.47;;
37407;SDS011;24866;50.248;8.252;2022-10-16T09:43:01;2.15;;;0.65;;
37407;SDS011;24866;50.248;8.252;2022-10-16T09:45:35;0.90;;;0.40;;
37407;SDS011;24866;50.248;8.252;2022-10-16T09:48:10;1.05;;;0.50;;
37407;SDS011;24866;50.248;8.252;2022-10-16T09:50:42;1.02;;;0.60;;
37407;SDS011;24866;50.248;8.252;2022-10-16T09:53:13;6.45;;;1.15;;
37407;SDS011;24866;50.248;8.252;2022-10-16T09:55:48;2.78;;;0.73;;
37407;SDS011;24866;50.248;8.252;2022-10-16T09:58:21;2.58;;;0.68;;
37407;SDS011;24866;50.248;8.252;2022-10-16T10:00:52;2.50;;;0.43;;
37407;SDS011;24866;50.248;8.252;2022-10-16T10:03:33;1.13;;;0.40;;
37407;SDS011;24866;50.248;8.252;2022-10-16T10:06:15;3.13;;;0.65;;
37407;SDS011;24866;50.248;8.252;2022-10-16T10:08:56;2.67;;;0.52;;
37407;SDS011;24866;50.248;8.252;2022-10-16T10:11:42;1.25;;;0.40;;
37407;SDS011;24866;50.248;8.252;2022-10-16T10:14:19;1.98;;;0.55;;
37407;SDS011;24866;50.248;8.252;2022-10-16T10:17:02;3.70;;;0.60;;
37407;SDS011;24866;50.248;8.252;2022-10-16T10:19:48;1.45;;;0.70;;
37407;SDS011;24866;50.248;8.252;2022-10-16T10:22:26;0.90;;;0.60;;
37407;SDS011;24866;50.248;8.252;2022-10-16T10:25:01;1.02;;;0.57;;
37407;SDS011;24866;50.248;8.252;2022-10-16T10:28:16;0.50;;;0.43;;
37407;SDS011;24866;50.248;8.252;2022-10-16T10:30:56;1.48;;;0.60;;
37407;SDS011;24866;50.248;8.252;2022-10-16T10:33:34;0.63;;;0.35;;
37407;SDS011;24866;50.248;8.252;2022-10-16T10:36:14;3.05;;;0.43;;
37407;SDS011;24866;50.248;8.252;2022-10-16T10:38:54;0.75;;;0.40;;
37407;SDS011;24866;50.248;8.252;2022-10-16T10:44:47;3.25;;;0.30;;
37407;SDS011;24866;50.248;8.252;2022-10-16T10:47:46;2.65;;;0.40;;
37407;SDS011;24866;50.248;8.252;2022-10-16T10:50:24;0.40;;;0.30;;
37407;SDS011;24866;50.248;8.252;2022-10-16T10:53:02;1.00;;;0.20;;
37407;SDS011;24866;50.248;8.252;2022-10-16T10:55:43;2.55;;;0.30;;
37407;SDS011;24866;50.248;8.252;2022-10-16T10:58:27;1.80;;;0.35;;
37407;SDS011;24866;50.248;8.252;2022-10-16T11:01:19;2.53;;;0.20;;
37407;SDS011;24866;50.248;8.252;2022-10-16T11:04:04;2.15;;;0.20;;
37407;SDS011;24866;50.248;8.252;2022-10-16T11:07:04;0.68;;;0.20;;
37407;SDS011;24866;50.248;8.252;2022-10-16T11:09:39;0.40;;;0.20;;
37407;SDS011;24866;50.248;8.252;2022-10-16T11:12:14;1.77;;;0.68;;
37407;SDS011;24866;50.248;8.252;2022-10-16T11:14:49;1.20;;;0.70;;
37407;SDS011;24866;50.248;8.252;2022-10-16T11:17:25;3.50;;;0.88;;
37407;SDS011;24866;50.248;8.252;2022-10-16T11:20:00;1.75;;;0.68;;
37407;SDS011;24866;50.248;8.252;2022-10-16T11:22:36;1.70;;;0.68;;
37407;SDS011;24866;50.248;8.252;2022-10-16T11:25:12;3.10;;;0.60;;
37407;SDS011;24866;50.248;8.252;2022-10-16T11:27:47;1.90;;;0.70;;
37407;SDS011;24866;50.248;8.252;2022-10-16T11:30:20;3.78;;;1.00;;
37407;SDS011;24866;50.248;8.252;2022-10-16T11:35:33;3.25;;;0.98;;
37407;SDS011;24866;50.248;8.252;2022-10-16T11:38:14;1.83;;;1.20;;
37407;SDS011;24866;50.248;8.252;2022-10-16T11:40:50;3.35;;;0.90;;
37407;SDS011;24866;50.248;8.252;2022-10-16T11:43:28;1.15;;;0.47;;
37407;SDS011;24866;50.248;8.252;2022-10-16T11:46:04;2.17;;;0.50;;
37407;SDS011;24866;50.248;8.252;2022-10-16T11:48:41;2.33;;;0.63;;
37407;SDS011;24866;50.248;8.252;2022-10-16T11:51:19;2.90;;;1.20;;
37407;SDS011;24866;50.248;8.252;2022-10-16T11:53:57;0.88;;;0.45;;
37407;SDS011;24866;50.248;8.252;2022-10-16T11:56:31;2.55;;;0.52;;
37407;SDS011;24866;50.248;8.252;2022-10-16T11:59:07;2.97;;;0.50;;
37407;SDS011;24866;50.248;8.252;2022-10-16T12:01:46;1.20;;;0.60;;
37407;SDS011;24866;50.248;8.252;2022-10-16T12:04:21;2.33;;;0.63;;
37407;SDS011;24866;50.248;8.252;2022-10-16T12:06:57;0.90;;;0.60;;
37407;SDS011;24866;50.248;8.252;2022-10-16T12:09:32;2.58;;;0.57;;
37407;SDS011;24866;50.248;8.252;2022-10-16T12:15:03;2.50;;;0.70;;
37407;SDS011;24866;50.248;8.252;2022-10-16T12:17:48;8.13;;;1.40;;
37407;SDS011;24866;50.248;8.252;2022-10-16T12:20:20;2.50;;;1.13;;
37407;SDS011;24866;50.248;8.252;2022-10-16T12:22:54;2.20;;;0.77;;
37407;SDS011;24866;50.248;8.252;2022-10-16T12:25:26;1.95;;;1.10;;
37407;SDS011;24866;50.248;8.252;2022-10-16T12:28:02;3.42;;;1.58;;
37407;SDS011;24866;50.248;8.252;2022-10-16T12:30:35;3.13;;;1.40;;
37407;SDS011;24866;50.248;8.252;2022-10-16T12:33:06;2.15;;;1.40;;
37407;SDS011;24866;50.248;8.252;2022-10-16T12:35:50;2.95;;;1.50;;
37407;SDS011;24866;50.248;8.252;2022-10-16T12:38:21;4.07;;;2.10;;
37407;SDS011;24866;50.248;8.252;2022-10-16T12:40:56;6.95;;;3.22;;
37407;SDS011;24866;50.248;8.252;2022-10-16T12:43:36;3.67;;;2.20;;
37407;SDS011;24866;50.248;8.252;2022-10-16T12:46:22;2.85;;;2.03;;
37407;SDS011;24866;50.248;8.252;2022-10-16T12:49:20;4.50;;;1.95;;
37407;SDS011;24866;50.248;8.252;2022-10-16T12:51:58;2.50;;;1.73;;
37407;SDS011;24866;50.248;8.252;2022-10-16T12:54:28;3.22;;;2.10;;
37407;SDS011;24866;50.248;8.252;2022-10-16T12:57:21;3.75;;;1.98;;
37407;SDS011;24866;50.248;8.252;2022-10-16T13:00:03;3.75;;;1.45;;
37407;SDS011;24866;50.248;8.252;2022-10-16T13:02:54;3.70;;;1.40;;
37407;SDS011;24866;50.248;8.252;2022-10-16T13:11:24;1.70;;;1.17;;
37407;SDS011;24866;50.248;8.252;2022-10-16T13:17:20;2.00;;;1.20;;
37407;SDS011;24866;50.248;8.252;2022-10-16T13:19:58;1.58;;;1.08;;
37407;SDS011;24866;50.248;8.252;2022-10-16T13:22:38;2.08;;;1.13;;
37407;SDS011;24866;50.248;8.252;2022-10-16T13:25:19;3.13;;;1.45;;
37407;SDS011;24866;50.248;8.252;2022-10-16T13:27:59;3.25;;;1.05;;
37407;SDS011;24866;50.248;8.252;2022-10-16T13:30:30;2.50;;;1.23;;
37407;SDS011;24866;50.248;8.252;2022-10-16T13:33:04;3.22;;;1.50;;
37407;SDS011;24866;50.248;8.252;2022-10-16T13:35:48;3.40;;;1.40;;
37407;SDS011;24866;50.248;8.252;2022-10-16T13:38:19;2.58;;;1.30;;
37407;SDS011;24866;50.248;8.252;2022-10-16T13:40:53;3.78;;;2.00;;
37407;SDS011;24866;50.248;8.252;2022-10-16T13:43:26;2.08;;;1.55;;
37407;SDS011;24866;50.248;8.252;2022-10-16T13:45:59;3.20;;;1.83;;
37407;SDS011;24866;50.248;8.252;2022-10-16T13:48:31;5.80;;;1.88;;
37407;SDS011;24866;50.248;8.252;2022-10-16T13:51:05;4.13;;;1.77;;
37407;SDS011;24866;50.248;8.252;2022-10-16T13:53:39;3.47;;;1.98;;
37407;SDS011;24866;50.248;8.252;2022-10-16T13:56:10;2.70;;;1.40;;
37407;SDS011;24866;50.248;8.252;2022-10-16T13:58:42;5.45;;;2.00;;
37407;SDS011;24866;50.248;8.252;2022-10-16T14:01:15;3.90;;;1.40;;
37407;SDS011;24866;50.248;8.252;2022-10-16T14:03:48;3.92;;;1.60;;
37407;SDS011;24866;50.248;8.252;2022-10-16T14:06:21;1.45;;;1.00;;
37407;SDS011;24866;50.248;8.252;2022-10-16T14:08:53;3.35;;;1.30;;
37407;SDS011;24866;50.248;8.252;2022-10-16T14:11:28;2.53;;;1.23;;
37407;SDS011;24866;50.248;8.252;2022-10-16T14:13:59;2.38;;;1.35;;
37407;SDS011;24866;50.248;8.252;2022-10-16T14:16:30;2.78;;;1.25;;
37407;SDS011;24866;50.248;8.252;2022-10-16T14:19:02;3.25;;;1.50;;
37407;SDS011;24866;50.248;8.252;2022-10-16T14:21:36;2.53;;;1.40;;
37407;SDS011;24866;50.248;8.252;2022-10-16T14:24:12;3.83;;;1.40;;
37407;SDS011;24866;50.248;8.252;2022-10-16T14:26:43;2.47;;;1.35;;
37407;SDS011;24866;50.248;8.252;2022-10-16T14:29:17;3.10;;;1.73;;
37407;SDS011;24866;50.248;8.252;2022-10-16T14:31:54;4.18;;;2.10;;
37407;SDS011;24866;50.248;8.252;2022-10-16T14:34:26;3.10;;;1.70;;
37407;SDS011;24866;50.248;8.252;2022-10-16T14:39:35;4.15;;;1.63;;
37407;SDS011;24866;50.248;8.252;2022-10-16T14:42:11;3.47;;;1.67;;
37407;SDS011;24866;50.248;8.252;2022-10-16T14:44:47;6.65;;;3.25;;
37407;SDS011;24866;50.248;8.252;2022-10-16T14:47:21;4.85;;;3.10;;
37407;SDS011;24866;50.248;8.252;2022-10-16T14:49:54;5.82;;;2.70;;
37407;SDS011;24866;50.248;8.252;2022-10-16T14:52:28;4.15;;;2.25;;
37407;SDS011;24866;50.248;8.252;2022-10-16T14:54:58;5.57;;;2.75;;
37407;SDS011;24866;50.248;8.252;2022-10-16T14:57:28;4.53;;;1.50;;
37407;SDS011;24866;50.248;8.252;2022-10-16T15:00:03;4.68;;;2.20;;
37407;SDS011;24866;50.248;8.252;2022-10-16T15:02:38;2.25;;;1.80;;
37407;SDS011;24866;50.248;8.252;2022-10-16T15:05:14;4.30;;;1.60;;
37407;SDS011;24866;50.248;8.252;2022-10-16T15:07:48;2.97;;;1.60;;
37407;SDS011;24866;50.248;8.252;2022-10-16T15:10:21;3.70;;;2.75;;
37407;SDS011;24866;50.248;8.252;2022-10-16T15:12:53;7.15;;;3.60;;
37407;SDS011;24866;50.248;8.252;2022-10-16T15:15:25;3.15;;;2.47;;
37407;SDS011;24866;50.248;8.252;2022-10-16T15:18:03;3.17;;;2.25;;
37407;SDS011;24866;50.248;8.252;2022-10-16T15:20:36;7.70;;;4.78;;
37407;SDS011;24866;50.248;8.252;2022-10-16T15:23:13;9.55;;;5.78;;
37407;SDS011;24866;50.248;8.252;2022-10-16T15:25:45;15.13;;;9.05;;
37407;SDS011;24866;50.248;8.252;2022-10-16T15:28:17;9.35;;;5.30;;
37407;SDS011;24866;50.248;8.252;2022-10-16T15:30:48;5.60;;;4.13;;
37407;SDS011;24866;50.248;8.252;2022-10-16T15:33:20;7.65;;;4.35;;
37407;SDS011;24866;50.248;8.252;2022-10-16T15:35:51;5.80;;;3.47;;
37407;SDS011;24866;50.248;8.252;2022-10-16T15:38:23;5.88;;;2.95;;
37407;SDS011;24866;50.248;8.252;2022-10-16T15:40:53;4.88;;;2.20;;
37407;SDS011;24866;50.248;8.252;2022-10-16T15:43:24;4.05;;;2.10;;
37407;SDS011;24866;50.248;8.252;2022-10-16T15:45:58;4.80;;;2.10;;
37407;SDS011;24866;50.248;8.252;2022-10-16T15:48:30;3.55;;;1.85;;
37407;SDS011;24866;50.248;8.252;2022-10-16T15:51:02;2.90;;;2.22;;
37407;SDS011;24866;50.248;8.252;2022-10-16T15:53:36;4.93;;;2.85;;